Time;durP1;ratioP1;P1;durP2;ratioP2;P2;SDS_P1;SDS_P2;PMS_P1;PMS_P2;Temp;Humidity;BMP_temperature;BMP_pressure;BME280_temperature;BME280_humidity;BME280_pressure;Samples;Min_cycle;Max_cycle;Signal;HPM_P1;HPM_P2
2023/01/25 00:01:35;;;;;;;1.50;0.40;;;1.50;99.90;;;;;;5080433;28;20911;-71
2023/01/25 00:04:04;;;;;;;1.87;0.70;;;1.50;99.90;;;;;;5089961;28;20424;-71
2023/01/25 00:06:31;;;;;;;0.93;0.77;;;1.50;99.90;;;;;;5077167;28;20450;-71
2023/01/25 00:08:58;;;;;;;0.60;0.60;;;1.50;99.90;;;;;;5076876;28;20468;-71
2023/01/25 00:11:25;;;;;;;0.90;0.88;;;1.40;99.90;;;;;;5077862;28;20428;-70
2023/01/25 00:13:55;;;;;;;1.20;1.02;;;1.40;99.90;;;;;;5080271;28;20463;-70
2023/01/25 00:16:27;;;;;;;1.10;1.10;;;1.40;99.90;;;;;;5091388;28;20429;-70
2023/01/25 00:18:54;;;;;;;0.80;0.80;;;1.40;99.90;;;;;;5082870;28;20451;-70
2023/01/25 00:21:24;;;;;;;0.68;0.68;;;1.40;99.90;;;;;;5084846;28;20433;-69
2023/01/25 00:23:54;;;;;;;0.70;0.70;;;1.40;99.90;;;;;;5079733;28;20420;-69
2023/01/25 00:26:21;;;;;;;1.00;0.80;;;1.40;99.90;;;;;;5086278;28;20510;-70
2023/01/25 00:28:49;;;;;;;1.00;0.70;;;1.40;99.90;;;;;;5080892;28;20423;-70
2023/01/25 00:37:51;;;;;;;0.70;0.70;;;1.40;99.90;;;;;;5079694;28;20430;-71
2023/01/25 00:40:18;;;;;;;0.93;0.93;;;1.40;99.90;;;;;;5040453;28;20487;-70
2023/01/25 00:42:45;;;;;;;1.40;1.30;;;1.40;99.90;;;;;;5045979;28;20862;-70
2023/01/25 00:45:14;;;;;;;0.73;0.73;;;1.40;99.90;;;;;;5045739;28;20437;-70
2023/01/25 00:47:44;;;;;;;0.77;0.77;;;1.40;99.90;;;;;;5059945;28;20425;-70
2023/01/25 00:50:11;;;;;;;0.77;0.77;;;1.40;99.90;;;;;;5051336;28;20441;-70
2023/01/25 00:52:38;;;;;;;0.60;0.38;;;1.40;99.90;;;;;;5053583;28;20426;-70
2023/01/25 00:55:08;;;;;;;0.90;0.90;;;1.40;99.90;;;;;;5051514;28;20421;-70
2023/01/25 00:57:35;;;;;;;0.98;0.98;;;1.40;99.90;;;;;;5047091;28;20844;-70
2023/01/25 01:00:03;;;;;;;0.93;0.93;;;1.40;99.90;;;;;;5057087;28;20469;-70
2023/01/25 01:02:30;;;;;;;0.40;0.40;;;1.40;99.90;;;;;;5051675;28;20564;-70
2023/01/25 01:04:57;;;;;;;1.33;1.00;;;1.40;99.90;;;;;;5055794;28;20910;-70
2023/01/25 01:07:33;;;;;;;0.60;0.60;;;1.40;99.90;;;;;;5056491;28;20425;-70
2023/01/25 01:10:00;;;;;;;0.50;0.50;;;1.40;99.90;;;;;;5044406;28;20462;-70
2023/01/25 01:12:26;;;;;;;1.30;1.05;;;1.40;99.90;;;;;;5045326;28;20504;-70
2023/01/25 01:21:47;;;;;;;3.22;1.13;;;1.40;99.90;;;;;;5087660;28;20430;-70
2023/01/25 01:24:16;;;;;;;0.68;0.68;;;1.40;99.90;;;;;;5076595;28;20426;-70
2023/01/25 01:26:43;;;;;;;0.67;0.67;;;1.40;99.90;;;;;;5078429;28;20451;-70
2023/01/25 01:29:10;;;;;;;0.85;0.57;;;1.30;99.90;;;;;;5078361;28;20571;-70
2023/01/25 01:31:37;;;;;;;1.05;0.65;;;1.30;99.90;;;;;;5102318;28;20512;-70
2023/01/25 01:34:03;;;;;;;0.90;0.90;;;1.30;99.90;;;;;;5085542;28;20423;-69
2023/01/25 01:36:31;;;;;;;0.75;0.73;;;1.30;99.90;;;;;;5097364;28;20803;-69
2023/01/25 01:38:58;;;;;;;0.60;0.60;;;1.30;99.90;;;;;;5083900;28;20432;-70
2023/01/25 01:41:28;;;;;;;0.80;0.80;;;1.30;99.90;;;;;;5086256;28;20961;-70
2023/01/25 01:43:58;;;;;;;0.70;0.70;;;1.30;99.90;;;;;;5083695;28;20420;-70
2023/01/25 01:46:28;;;;;;;0.70;0.43;;;1.30;99.90;;;;;;5080567;28;20434;-70
2023/01/25 01:49:02;;;;;;;2.13;1.30;;;1.30;99.90;;;;;;5087156;28;20447;-70
2023/01/25 01:51:43;;;;;;;0.57;0.57;;;1.30;99.90;;;;;;5074461;28;20427;-70
2023/01/25 01:54:16;;;;;;;1.75;0.75;;;1.30;99.90;;;;;;5076058;28;20421;-70
2023/01/25 01:56:58;;;;;;;0.77;0.77;;;1.30;99.90;;;;;;5091162;28;20427;-70
2023/01/25 01:59:30;;;;;;;0.75;0.73;;;1.30;99.90;;;;;;5096120;28;20436;-70
2023/01/25 02:01:57;;;;;;;1.10;0.95;;;1.30;99.90;;;;;;5087710;28;20867;-69
2023/01/25 02:04:26;;;;;;;0.73;0.73;;;1.30;99.90;;;;;;5094101;28;20432;-69
2023/01/25 02:07:17;;;;;;;1.08;0.85;;;1.30;99.90;;;;;;5082551;28;20978;-69
2023/01/25 02:09:44;;;;;;;0.98;0.98;;;1.30;99.90;;;;;;5095435;28;21662;-70
2023/01/25 02:12:12;;;;;;;0.43;0.43;;;1.30;99.90;;;;;;5084526;28;20422;-69
2023/01/25 02:14:47;;;;;;;0.85;0.75;;;1.30;99.90;;;;;;5079046;28;20435;-69
2023/01/25 02:17:14;;;;;;;1.05;0.75;;;1.30;99.90;;;;;;5070305;28;20427;-69
2023/01/25 02:20:07;;;;;;;0.82;0.82;;;1.30;99.90;;;;;;5093480;28;21018;-70
2023/01/25 02:22:46;;;;;;;1.75;1.23;;;1.30;99.90;;;;;;5069667;28;20514;-69
2023/01/25 02:25:15;;;;;;;2.20;1.27;;;1.40;99.90;;;;;;5079630;28;20427;-69
2023/01/25 02:27:56;;;;;;;1.00;0.93;;;1.40;99.90;;;;;;5087177;28;20427;-69
2023/01/25 02:30:23;;;;;;;0.80;0.73;;;1.40;99.90;;;;;;5089988;28;20924;-70
2023/01/25 02:32:55;;;;;;;1.13;1.10;;;1.40;99.90;;;;;;5086325;28;20431;-69
2023/01/25 02:35:37;;;;;;;0.90;0.90;;;1.40;99.90;;;;;;5094704;28;20430;-70
2023/01/25 02:38:05;;;;;;;0.80;0.80;;;1.40;99.90;;;;;;5088933;28;20831;-69
2023/01/25 02:40:39;;;;;;;0.73;0.73;;;1.40;99.90;;;;;;5080978;28;20427;-69
2023/01/25 02:43:09;;;;;;;1.17;1.10;;;1.40;99.90;;;;;;5080323;28;20427;-69
2023/01/25 02:45:36;;;;;;;1.30;0.90;;;1.40;99.90;;;;;;5074458;28;20514;-69
2023/01/25 02:48:06;;;;;;;1.00;1.00;;;1.40;99.90;;;;;;5083091;28;20438;-70
2023/01/25 02:50:40;;;;;;;0.63;0.63;;;1.40;99.90;;;;;;5088478;28;20424;-69
2023/01/25 02:53:07;;;;;;;0.65;0.65;;;1.40;99.90;;;;;;5099631;28;20430;-70
2023/01/25 02:55:34;;;;;;;0.80;0.70;;;1.40;99.90;;;;;;5091375;28;20907;-70
2023/01/25 02:58:00;;;;;;;0.55;0.55;;;1.40;99.90;;;;;;5085557;28;20865;-70
2023/01/25 03:00:27;;;;;;;0.97;0.83;;;1.40;99.90;;;;;;5080637;28;20433;-69
2023/01/25 03:02:57;;;;;;;0.43;0.43;;;1.30;99.90;;;;;;5089963;28;20440;-70
2023/01/25 03:05:27;;;;;;;1.10;1.10;;;1.30;99.90;;;;;;5094333;28;20825;-70
2023/01/25 03:07:53;;;;;;;1.10;0.93;;;1.30;99.90;;;;;;5079706;28;20808;-69
2023/01/25 03:10:20;;;;;;;1.02;0.88;;;1.30;99.90;;;;;;5076018;28;20465;-69
2023/01/25 03:12:47;;;;;;;2.30;1.38;;;1.30;99.90;;;;;;5098466;28;20443;-70
2023/01/25 03:15:16;;;;;;;2.50;1.02;;;1.40;99.90;;;;;;5108029;28;20427;-70
2023/01/25 03:17:43;;;;;;;1.57;1.10;;;1.40;99.90;;;;;;5097848;28;20441;-69
2023/01/25 03:20:11;;;;;;;0.88;0.80;;;1.40;99.90;;;;;;5083296;28;20479;-69
2023/01/25 03:22:37;;;;;;;1.90;1.20;;;1.40;99.90;;;;;;5070637;28;20774;-69
2023/01/25 03:25:05;;;;;;;0.73;0.73;;;1.40;99.90;;;;;;5072127;28;20423;-69
2023/01/25 03:27:32;;;;;;;2.47;1.08;;;1.40;99.90;;;;;;5082028;28;20554;-69
2023/01/25 03:29:59;;;;;;;0.80;0.80;;;1.40;99.90;;;;;;5074140;28;20436;-69
2023/01/25 03:32:26;;;;;;;1.43;0.90;;;1.50;99.90;;;;;;5084088;28;20510;-69
2023/01/25 03:34:55;;;;;;;0.70;0.68;;;1.40;99.90;;;;;;5069063;28;20423;-69
2023/01/25 03:37:22;;;;;;;0.50;0.50;;;1.40;99.90;;;;;;5080906;28;20439;-69
2023/01/25 03:39:49;;;;;;;0.83;0.83;;;1.40;99.90;;;;;;5081036;28;20793;-69
2023/01/25 03:42:19;;;;;;;1.03;1.03;;;1.40;99.90;;;;;;5080737;28;20953;-69
2023/01/25 03:44:45;;;;;;;1.10;0.60;;;1.40;99.90;;;;;;5102564;28;20460;-69
2023/01/25 03:47:12;;;;;;;0.52;0.52;;;1.40;99.90;;;;;;5076018;28;20453;-69
2023/01/25 03:49:39;;;;;;;2.10;1.10;;;1.40;99.90;;;;;;5096909;28;20427;-69
2023/01/25 03:52:06;;;;;;;1.58;0.95;;;1.40;99.90;;;;;;5083380;28;20425;-69
2023/01/25 03:54:33;;;;;;;0.50;0.50;;;1.40;99.90;;;;;;5088465;28;20426;-69
2023/01/25 03:57:00;;;;;;;0.75;0.75;;;1.50;99.90;;;;;;5092795;28;20477;-69
2023/01/25 03:59:26;;;;;;;1.00;0.80;;;1.50;99.90;;;;;;5091958;28;22214;-69
2023/01/25 04:01:53;;;;;;;0.40;0.40;;;1.40;99.90;;;;;;5094525;28;20428;-69
2023/01/25 04:04:20;;;;;;;2.10;1.10;;;1.40;99.90;;;;;;5088263;28;20421;-69
2023/01/25 04:06:49;;;;;;;0.88;0.88;;;1.40;99.90;;;;;;5090556;28;20417;-69
2023/01/25 04:09:16;;;;;;;1.27;0.73;;;1.40;99.90;;;;;;5079940;28;20505;-69
2023/01/25 04:11:42;;;;;;;3.80;0.67;;;1.40;99.90;;;;;;5083420;28;20423;-69
2023/01/25 04:14:10;;;;;;;1.20;0.90;;;1.40;99.90;;;;;;5081029;28;20463;-69
2023/01/25 04:16:36;;;;;;;2.80;1.02;;;1.40;99.90;;;;;;5082669;28;20426;-69
2023/01/25 04:19:03;;;;;;;1.17;1.07;;;1.30;99.90;;;;;;5084973;28;20446;-69
2023/01/25 04:21:30;;;;;;;0.50;0.50;;;1.30;99.90;;;;;;5074139;28;20428;-70
2023/01/25 04:23:57;;;;;;;1.30;1.10;;;1.30;99.90;;;;;;5095757;28;22404;-69
2023/01/25 04:26:24;;;;;;;0.67;0.67;;;1.30;99.90;;;;;;5095105;28;20437;-69
2023/01/25 04:28:51;;;;;;;1.10;0.45;;;1.30;99.90;;;;;;5091286;28;20430;-69
2023/01/25 04:31:17;;;;;;;1.13;1.02;;;1.30;99.90;;;;;;5088472;28;20432;-69
2023/01/25 04:33:44;;;;;;;0.47;0.47;;;1.30;99.90;;;;;;5097645;28;20477;-69
2023/01/25 04:36:11;;;;;;;0.90;0.90;;;1.30;99.90;;;;;;5092921;28;20435;-70
2023/01/25 04:38:38;;;;;;;0.65;0.65;;;1.30;99.90;;;;;;5098019;28;20823;-69
2023/01/25 04:41:04;;;;;;;0.90;0.60;;;1.30;99.90;;;;;;5087786;28;20444;-69
2023/01/25 04:43:31;;;;;;;1.00;0.63;;;1.30;99.90;;;;;;5096719;28;20416;-69
2023/01/25 04:46:01;;;;;;;1.33;0.70;;;1.30;99.90;;;;;;5092449;28;20462;-69
2023/01/25 04:48:28;;;;;;;0.80;0.80;;;1.30;99.90;;;;;;5081733;28;20966;-69
2023/01/25 04:50:55;;;;;;;0.73;0.73;;;1.20;99.90;;;;;;5087874;28;20422;-69
2023/01/25 04:53:22;;;;;;;1.00;1.00;;;1.20;99.90;;;;;;5104958;28;20424;-69
2023/01/25 04:55:52;;;;;;;1.20;1.05;;;1.20;99.90;;;;;;5085646;28;20933;-69
2023/01/25 04:58:20;;;;;;;1.10;1.10;;;1.20;99.90;;;;;;5101576;28;20887;-69
2023/01/25 05:00:47;;;;;;;0.70;0.50;;;1.20;99.90;;;;;;5104636;28;20487;-69
2023/01/25 05:03:14;;;;;;;2.53;0.82;;;1.20;99.90;;;;;;5089068;28;20791;-69
2023/01/25 05:05:46;;;;;;;0.90;0.80;;;1.20;99.90;;;;;;5093499;28;21090;-69
2023/01/25 05:08:13;;;;;;;0.73;0.73;;;1.10;99.90;;;;;;5086798;28;20494;-69
2023/01/25 05:10:39;;;;;;;1.20;0.63;;;1.10;99.90;;;;;;5082973;28;20481;-69
2023/01/25 05:13:06;;;;;;;0.70;0.60;;;1.10;99.90;;;;;;5082486;28;20428;-69
2023/01/25 05:15:33;;;;;;;1.25;0.98;;;1.10;99.90;;;;;;5090814;28;20895;-69
2023/01/25 05:17:59;;;;;;;0.85;0.85;;;1.10;99.90;;;;;;5096614;28;20528;-69
2023/01/25 05:20:26;;;;;;;2.00;0.88;;;1.10;99.90;;;;;;5108184;28;20428;-69
2023/01/25 05:22:53;;;;;;;0.60;0.60;;;1.10;99.90;;;;;;5088431;28;20430;-70
2023/01/25 05:28:06;;;;;;;2.10;0.77;;;1.10;99.90;;;;;;5086045;28;20516;-69
2023/01/25 05:30:33;;;;;;;0.85;0.85;;;1.00;99.90;;;;;;5079670;28;20429;-69
2023/01/25 05:33:00;;;;;;;1.02;0.93;;;1.00;99.90;;;;;;5081778;28;20429;-69
2023/01/25 05:35:26;;;;;;;3.05;0.98;;;1.00;99.90;;;;;;5086644;28;20454;-69
2023/01/25 05:37:59;;;;;;;1.55;0.73;;;1.00;99.90;;;;;;5087532;28;20426;-69
2023/01/25 05:40:26;;;;;;;1.50;0.70;;;1.00;99.90;;;;;;5086210;28;20809;-69
2023/01/25 05:42:59;;;;;;;2.03;1.30;;;1.00;99.90;;;;;;5079469;28;20438;-69
2023/01/25 05:45:26;;;;;;;1.77;0.88;;;1.00;99.90;;;;;;5065721;28;20447;-69
2023/01/25 05:47:54;;;;;;;0.85;0.85;;;1.00;99.90;;;;;;5068735;28;20428;-69
2023/01/25 05:50:22;;;;;;;0.73;0.73;;;1.10;99.90;;;;;;5074989;28;20434;-68
2023/01/25 05:52:49;;;;;;;0.45;0.45;;;1.10;99.90;;;;;;5078237;28;20430;-68
2023/01/25 05:55:16;;;;;;;0.98;0.98;;;1.10;99.90;;;;;;5076972;28;20462;-69
2023/01/25 05:57:43;;;;;;;0.80;0.80;;;1.10;99.90;;;;;;5084307;28;20566;-69
2023/01/25 06:00:10;;;;;;;1.10;1.00;;;1.10;99.90;;;;;;5086570;28;21014;-68
2023/01/25 06:02:37;;;;;;;1.25;1.15;;;1.10;99.90;;;;;;5078668;28;20487;-71
2023/01/25 06:05:05;;;;;;;0.82;0.82;;;1.00;99.90;;;;;;5073815;28;20439;-68
2023/01/25 06:07:35;;;;;;;1.70;0.93;;;1.00;99.90;;;;;;5070484;28;20428;-69
2023/01/25 06:10:04;;;;;;;0.90;0.80;;;1.00;99.90;;;;;;5072816;28;20435;-68
2023/01/25 06:12:31;;;;;;;3.00;1.15;;;1.00;99.90;;;;;;5074816;28;20420;-68
2023/01/25 06:14:58;;;;;;;1.60;0.82;;;1.00;99.90;;;;;;5071759;28;20770;-68
2023/01/25 06:17:28;;;;;;;1.35;1.25;;;1.00;99.90;;;;;;5072818;28;20511;-69
2023/01/25 06:19:55;;;;;;;0.77;0.77;;;1.00;99.90;;;;;;5075553;28;20430;-68
2023/01/25 06:22:21;;;;;;;1.50;1.37;;;0.90;99.90;;;;;;5076424;28;20426;-69
2023/01/25 06:24:48;;;;;;;1.30;0.80;;;1.00;99.90;;;;;;5065475;28;20431;-68
2023/01/25 06:27:15;;;;;;;3.10;1.20;;;1.00;99.90;;;;;;5075457;28;20443;-69
2023/01/25 06:29:42;;;;;;;2.10;1.00;;;1.00;99.90;;;;;;5076218;28;20421;-68
2023/01/25 06:32:09;;;;;;;0.70;0.70;;;1.00;99.90;;;;;;5070174;28;20417;-67
2023/01/25 06:34:36;;;;;;;0.80;0.80;;;1.00;99.90;;;;;;5074382;28;22359;-68
2023/01/25 06:37:08;;;;;;;2.10;1.40;;;1.00;99.90;;;;;;5073254;28;20437;-68
2023/01/25 06:39:38;;;;;;;0.70;0.55;;;0.90;99.90;;;;;;5078559;28;20438;-68
2023/01/25 06:42:05;;;;;;;2.72;0.95;;;0.90;99.90;;;;;;5078859;28;20429;-68
2023/01/25 06:44:32;;;;;;;1.60;0.93;;;0.90;99.90;;;;;;5081490;28;20550;-68
2023/01/25 06:46:58;;;;;;;0.88;0.80;;;0.80;99.90;;;;;;5089042;28;20458;-71
2023/01/25 06:49:25;;;;;;;0.82;0.80;;;0.90;99.90;;;;;;5053584;28;20425;-68
2023/01/25 06:51:52;;;;;;;0.90;0.90;;;0.90;99.90;;;;;;5076258;28;20769;-69
2023/01/25 06:54:20;;;;;;;1.50;1.40;;;0.90;99.90;;;;;;5078289;28;20743;-69
2023/01/25 06:56:47;;;;;;;0.70;0.70;;;0.90;99.90;;;;;;5062733;28;20417;-69
2023/01/25 06:59:14;;;;;;;0.80;0.80;;;0.80;99.90;;;;;;5066012;28;20438;-69
2023/01/25 07:01:41;;;;;;;1.35;1.25;;;0.80;99.90;;;;;;5074151;28;20423;-70
2023/01/25 07:04:13;;;;;;;0.65;0.65;;;0.80;99.90;;;;;;5071677;28;20907;-69
2023/01/25 07:06:39;;;;;;;1.20;0.90;;;0.70;99.90;;;;;;5080068;28;20423;-69
2023/01/25 07:09:09;;;;;;;3.25;2.15;;;0.70;99.90;;;;;;5078285;28;20423;-69
2023/01/25 07:11:36;;;;;;;0.80;0.50;;;0.70;99.90;;;;;;5080902;28;20433;-69
2023/01/25 07:14:03;;;;;;;1.50;1.20;;;0.70;99.90;;;;;;5086101;28;20460;-69
2023/01/25 07:16:35;;;;;;;0.90;0.88;;;0.70;99.90;;;;;;5079781;28;20446;-69
2023/01/25 07:19:12;;;;;;;1.83;1.03;;;0.70;99.90;;;;;;5091572;28;20473;-69
2023/01/25 07:21:38;;;;;;;0.95;0.88;;;0.60;99.90;;;;;;5086815;28;20507;-69
2023/01/25 07:24:05;;;;;;;1.42;1.10;;;0.60;99.90;;;;;;5065887;28;20468;-69
2023/01/25 07:26:32;;;;;;;1.35;1.15;;;0.70;99.90;;;;;;5079383;28;20923;-69
2023/01/25 07:28:59;;;;;;;1.15;1.05;;;0.70;99.90;;;;;;5078542;28;20424;-69
2023/01/25 07:31:26;;;;;;;2.40;1.45;;;0.70;99.90;;;;;;5076993;28;20430;-69
2023/01/25 07:33:56;;;;;;;0.70;0.70;;;0.70;99.90;;;;;;5067774;28;20481;-69
2023/01/25 07:36:24;;;;;;;3.78;1.15;;;0.70;99.90;;;;;;5075829;28;20458;-69
2023/01/25 07:38:56;;;;;;;2.05;1.15;;;0.70;99.90;;;;;;5073210;28;20430;-69
2023/01/25 07:41:24;;;;;;;1.30;1.00;;;0.70;99.90;;;;;;5079874;28;20466;-69
2023/01/25 07:43:52;;;;;;;3.05;1.17;;;0.70;99.90;;;;;;5079315;28;20424;-69
2023/01/25 07:46:18;;;;;;;0.65;0.65;;;0.70;99.90;;;;;;5085437;28;21076;-69
2023/01/25 07:48:51;;;;;;;1.00;0.88;;;0.70;99.90;;;;;;5076053;28;20443;-69
2023/01/25 07:51:22;;;;;;;0.47;0.47;;;0.60;99.90;;;;;;5075402;28;20438;-69
2023/01/25 07:53:55;;;;;;;1.15;0.82;;;0.60;99.90;;;;;;5082876;28;20432;-69
2023/01/25 07:56:25;;;;;;;5.70;0.63;;;0.60;99.90;;;;;;5081637;28;20521;-69
2023/01/25 07:58:53;;;;;;;1.20;0.63;;;0.60;99.90;;;;;;5090349;28;20447;-69
2023/01/25 08:01:22;;;;;;;2.40;1.63;;;0.60;99.90;;;;;;5097534;28;20428;-69
2023/01/25 08:03:51;;;;;;;3.20;0.75;;;0.60;99.90;;;;;;5086197;28;20436;-70
2023/01/25 08:06:37;;;;;;;1.23;1.13;;;0.60;99.90;;;;;;5083210;28;20442;-69
2023/01/25 08:09:12;;;;;;;1.52;0.90;;;0.60;99.90;;;;;;5076700;28;20537;-69
2023/01/25 08:11:40;;;;;;;0.65;0.65;;;0.60;99.90;;;;;;5091909;28;20417;-69
2023/01/25 08:14:07;;;;;;;1.50;1.23;;;0.60;99.90;;;;;;5101638;28;20501;-69
2023/01/25 08:16:34;;;;;;;0.77;0.63;;;0.60;99.90;;;;;;5071481;28;20502;-69
2023/01/25 08:19:02;;;;;;;0.90;0.90;;;0.60;99.90;;;;;;5080083;28;20735;-69
2023/01/25 08:21:32;;;;;;;1.38;1.08;;;0.60;99.90;;;;;;5086773;28;20453;-69
2023/01/25 08:24:08;;;;;;;1.27;1.10;;;0.60;99.90;;;;;;5089283;28;20425;-69
2023/01/25 08:26:36;;;;;;;0.57;0.57;;;0.70;99.90;;;;;;5070707;28;20949;-69
2023/01/25 08:29:10;;;;;;;1.55;0.95;;;0.70;99.90;;;;;;5078814;28;20481;-69
2023/01/25 08:31:42;;;;;;;1.40;0.90;;;0.70;99.90;;;;;;5091127;28;20428;-70
2023/01/25 08:34:09;;;;;;;0.63;0.45;;;0.70;99.90;;;;;;5099234;28;20435;-69
2023/01/25 08:36:36;;;;;;;1.20;0.82;;;0.70;99.90;;;;;;5096777;28;20511;-69
2023/01/25 08:39:06;;;;;;;1.23;1.13;;;0.70;99.90;;;;;;5074131;28;20425;-70
2023/01/25 08:41:34;;;;;;;1.30;0.90;;;0.70;99.90;;;;;;5088057;28;20425;-69
2023/01/25 08:44:01;;;;;;;0.90;0.90;;;0.70;99.90;;;;;;5077603;28;20427;-69
2023/01/25 08:46:31;;;;;;;1.15;1.05;;;0.70;99.90;;;;;;5078962;28;20424;-69
2023/01/25 08:49:00;;;;;;;2.00;1.80;;;0.70;99.90;;;;;;5095520;28;20429;-70
2023/01/25 08:51:28;;;;;;;2.25;1.75;;;0.80;99.90;;;;;;5079863;28;20506;-69
2023/01/25 08:53:54;;;;;;;0.95;0.95;;;0.80;99.90;;;;;;5099230;28;20436;-69
2023/01/25 08:56:23;;;;;;;2.33;1.52;;;0.80;99.90;;;;;;5087575;28;20428;-70
2023/01/25 08:58:50;;;;;;;1.20;0.82;;;0.80;99.90;;;;;;5077346;28;20435;-69
2023/01/25 09:01:20;;;;;;;1.40;1.30;;;0.80;99.90;;;;;;5072974;28;20442;-69
2023/01/25 09:03:49;;;;;;;0.88;0.88;;;0.80;99.90;;;;;;5095405;28;21088;-69
2023/01/25 09:06:16;;;;;;;0.80;0.60;;;0.80;99.90;;;;;;5077887;28;20427;-69
2023/01/25 09:08:43;;;;;;;4.32;1.25;;;0.80;99.90;;;;;;5089505;28;20432;-69
2023/01/25 09:11:13;;;;;;;1.00;0.80;;;0.80;99.90;;;;;;5082857;28;20426;-69
2023/01/25 09:13:44;;;;;;;1.00;1.00;;;0.90;99.90;;;;;;5092412;28;20905;-69
2023/01/25 09:16:13;;;;;;;1.15;1.10;;;0.90;99.90;;;;;;5089934;28;20427;-69
2023/01/25 09:18:43;;;;;;;1.07;0.90;;;0.90;99.90;;;;;;5100027;28;20424;-69
2023/01/25 09:21:13;;;;;;;2.42;0.98;;;0.90;99.90;;;;;;5096791;28;20426;-69
2023/01/25 09:23:40;;;;;;;1.30;1.17;;;0.90;99.90;;;;;;5080849;28;20432;-69
2023/01/25 09:26:23;;;;;;;2.28;1.90;;;0.90;99.90;;;;;;5082557;28;20924;-70
2023/01/25 09:28:51;;;;;;;1.10;1.00;;;0.90;99.90;;;;;;5079146;28;20420;-69
2023/01/25 09:31:19;;;;;;;1.50;1.23;;;1.00;99.90;;;;;;5083978;28;20430;-69
2023/01/25 09:33:52;;;;;;;1.65;1.15;;;1.00;99.90;;;;;;5087467;28;20432;-69
2023/01/25 09:36:22;;;;;;;4.60;1.00;;;0.90;99.90;;;;;;5096125;28;20515;-69
2023/01/25 09:38:48;;;;;;;1.05;0.70;;;1.00;99.90;;;;;;5078573;28;20431;-70
2023/01/25 09:41:23;;;;;;;1.05;0.85;;;1.00;99.90;;;;;;5082553;28;20423;-69
2023/01/25 09:44:06;;;;;;;1.15;1.13;;;1.00;99.90;;;;;;5089172;28;20432;-69
2023/01/25 09:46:59;;;;;;;1.05;0.98;;;1.00;99.90;;;;;;5070058;28;20428;-69
2023/01/25 09:49:32;;;;;;;1.60;0.68;;;1.00;99.90;;;;;;5070531;28;20519;-70
2023/01/25 09:52:16;;;;;;;0.55;0.55;;;0.90;99.90;;;;;;5069707;28;20824;-68
2023/01/25 09:54:46;;;;;;;0.80;0.80;;;1.00;99.90;;;;;;5082523;28;20423;-68
2023/01/25 09:57:21;;;;;;;2.03;1.50;;;1.10;99.90;;;;;;5072546;28;20431;-69
2023/01/25 09:59:50;;;;;;;3.67;1.45;;;1.10;99.90;;;;;;5077617;28;20426;-69
2023/01/25 10:02:29;;;;;;;0.93;0.93;;;1.00;99.90;;;;;;5069808;28;20427;-69
2023/01/25 10:05:04;;;;;;;0.63;0.63;;;1.10;99.90;;;;;;5068551;28;20466;-69
2023/01/25 10:07:42;;;;;;;2.35;1.25;;;1.20;99.90;;;;;;5069780;28;21152;-69
2023/01/25 10:10:23;;;;;;;1.42;1.33;;;1.30;99.90;;;;;;5068369;28;20430;-69
2023/01/25 10:12:50;;;;;;;2.60;1.48;;;1.30;99.90;;;;;;5069922;28;20966;-70
2023/01/25 10:15:25;;;;;;;1.80;1.40;;;1.40;99.90;;;;;;5083806;28;20462;-69
2023/01/25 10:18:02;;;;;;;1.00;1.00;;;1.40;99.90;;;;;;5073641;28;20438;-70
2023/01/25 10:20:42;;;;;;;2.10;1.10;;;1.30;99.90;;;;;;5066930;28;20466;-69
2023/01/25 10:23:28;;;;;;;1.38;1.27;;;1.30;99.90;;;;;;5081269;28;20434;-70
2023/01/25 10:26:00;;;;;;;2.00;0.90;;;1.20;99.90;;;;;;5093715;28;20454;-69
2023/01/25 10:28:49;;;;;;;1.10;0.90;;;1.20;99.90;;;;;;5069270;28;20434;-69
2023/01/25 10:31:18;;;;;;;0.73;0.73;;;1.30;99.90;;;;;;5092522;28;20434;-69
2023/01/25 10:33:47;;;;;;;2.10;0.80;;;1.30;99.90;;;;;;5074051;28;20431;-69
2023/01/25 10:36:19;;;;;;;1.63;1.00;;;1.30;99.90;;;;;;5073194;28;20458;-69
2023/01/25 10:38:54;;;;;;;2.05;1.60;;;1.40;99.90;;;;;;5078783;28;20453;-68
2023/01/25 10:41:27;;;;;;;2.00;1.40;;;1.30;99.90;;;;;;5068277;28;20431;-68
2023/01/25 10:44:28;;;;;;;0.88;0.88;;;1.30;99.90;;;;;;5067466;28;20519;-68
2023/01/25 10:46:59;;;;;;;0.90;0.50;;;1.30;99.90;;;;;;5068514;28;20489;-68
2023/01/25 10:49:49;;;;;;;2.97;1.77;;;1.30;99.90;;;;;;5069055;28;20431;-68
2023/01/25 10:52:19;;;;;;;1.85;1.15;;;1.40;99.90;;;;;;5072951;28;20428;-68
2023/01/25 10:55:03;;;;;;;1.38;1.27;;;1.40;99.90;;;;;;5073130;28;20435;-68
2023/01/25 10:57:31;;;;;;;1.83;1.57;;;1.10;99.90;;;;;;5073252;28;20444;-69
2023/01/25 11:00:09;;;;;;;1.60;1.50;;;1.20;99.90;;;;;;5089003;28;20438;-69
2023/01/25 11:02:47;;;;;;;4.65;1.40;;;1.10;99.90;;;;;;5089922;28;20430;-69
2023/01/25 11:05:32;;;;;;;0.50;0.50;;;1.20;99.90;;;;;;5096288;28;20801;-69
2023/01/25 11:08:38;;;;;;;3.30;1.70;;;1.20;99.90;;;;;;5084516;28;20421;-68
2023/01/25 11:11:34;;;;;;;1.70;0.82;;;1.20;99.90;;;;;;5087744;28;20431;-69
2023/01/25 11:14:14;;;;;;;3.95;1.40;;;1.10;99.90;;;;;;5089565;28;20435;-69
2023/01/25 11:16:46;;;;;;;1.57;0.63;;;1.20;99.90;;;;;;5113682;28;20838;-69
2023/01/25 11:19:27;;;;;;;2.22;1.17;;;1.20;99.90;;;;;;5093943;28;20461;-69
2023/01/25 11:21:56;;;;;;;2.20;1.00;;;1.10;99.90;;;;;;5076966;28;20956;-69
2023/01/25 11:24:34;;;;;;;0.93;0.93;;;1.10;99.90;;;;;;5072905;28;20455;-69
2023/01/25 11:27:31;;;;;;;1.40;1.10;;;1.00;99.90;;;;;;5073379;28;20548;-69
2023/01/25 11:30:17;;;;;;;1.65;1.55;;;1.00;99.90;;;;;;5030100;28;20436;-69
2023/01/25 11:32:44;;;;;;;1.10;1.00;;;1.10;99.90;;;;;;5014676;28;20419;-69
2023/01/25 11:35:16;;;;;;;4.30;1.47;;;1.10;99.90;;;;;;5029658;28;20419;-69
2023/01/25 11:38:13;;;;;;;1.13;0.77;;;1.20;99.90;;;;;;5048958;28;20453;-69
2023/01/25 11:41:17;;;;;;;1.00;1.00;;;1.30;99.90;;;;;;5049284;28;20457;-69
2023/01/25 11:44:00;;;;;;;3.20;0.77;;;1.20;99.90;;;;;;5049399;28;20457;-68
2023/01/25 11:47:02;;;;;;;3.10;1.52;;;1.20;99.90;;;;;;5048664;28;20425;-69
2023/01/25 11:49:54;;;;;;;1.77;1.10;;;1.20;99.90;;;;;;5027349;28;20473;-69
2023/01/25 11:52:47;;;;;;;1.30;1.23;;;1.10;99.90;;;;;;5030059;28;20437;-69
2023/01/25 11:55:33;;;;;;;4.53;1.05;;;1.20;99.90;;;;;;5029327;28;20423;-69
2023/01/25 11:58:27;;;;;;;1.45;1.45;;;1.20;99.90;;;;;;5032759;28;20425;-69
2023/01/25 12:01:15;;;;;;;1.38;1.35;;;1.20;99.90;;;;;;5045857;28;20429;-69
2023/01/25 12:03:50;;;;;;;4.82;1.45;;;1.20;99.90;;;;;;5045477;28;20961;-69
2023/01/25 12:06:47;;;;;;;2.60;1.40;;;1.20;99.90;;;;;;5058538;28;20438;-69
2023/01/25 12:09:18;;;;;;;1.33;1.23;;;1.30;99.90;;;;;;5077875;28;20876;-69
2023/01/25 12:12:13;;;;;;;2.05;1.60;;;1.30;99.90;;;;;;5099122;28;20481;-69
2023/01/25 12:14:48;;;;;;;1.63;1.42;;;1.20;99.90;;;;;;5103644;28;20420;-69
2023/01/25 12:17:34;;;;;;;3.63;1.92;;;1.30;99.90;;;;;;5088747;28;20459;-68
2023/01/25 12:20:27;;;;;;;1.70;1.60;;;1.20;99.90;;;;;;5091601;28;20514;-68
2023/01/25 12:23:19;;;;;;;11.07;3.22;;;1.20;99.90;;;;;;5073777;28;20951;-69
2023/01/25 12:26:14;;;;;;;3.93;1.97;;;1.20;99.90;;;;;;5063568;28;20430;-68
2023/01/25 12:28:49;;;;;;;3.05;2.53;;;1.20;99.90;;;;;;5070176;28;20479;-68
2023/01/25 12:31:25;;;;;;;2.38;2.17;;;1.30;99.90;;;;;;5073694;28;20427;-69
2023/01/25 12:34:13;;;;;;;2.13;1.38;;;1.30;99.90;;;;;;5082576;28;20424;-68
2023/01/25 12:36:44;;;;;;;5.85;3.10;;;1.30;99.90;;;;;;5079837;28;20424;-69
2023/01/25 12:39:31;;;;;;;5.18;1.85;;;1.30;99.90;;;;;;5068630;28;20434;-69
2023/01/25 12:42:04;;;;;;;6.13;2.00;;;1.20;99.90;;;;;;5092554;28;20440;-69
2023/01/25 12:44:43;;;;;;;3.20;1.95;;;1.10;99.90;;;;;;5089617;28;20435;-70
2023/01/25 12:47:13;;;;;;;1.40;1.10;;;1.10;99.90;;;;;;5078875;28;20443;-70
2023/01/25 12:49:54;;;;;;;5.95;2.15;;;1.10;99.90;;;;;;5080097;28;20491;-70
2023/01/25 12:52:34;;;;;;;4.90;2.78;;;1.00;99.90;;;;;;5076544;28;20485;-70
2023/01/25 12:55:12;;;;;;;10.38;4.95;;;1.10;99.90;;;;;;5076614;28;20424;-70
2023/01/25 12:57:51;;;;;;;5.80;2.15;;;1.10;99.90;;;;;;5074926;28;20461;-70
2023/01/25 13:00:42;;;;;;;4.50;1.77;;;1.10;99.90;;;;;;5074441;28;20427;-70
2023/01/25 13:03:28;;;;;;;4.32;1.92;;;1.00;99.90;;;;;;5082898;28;24754;-70
2023/01/25 13:06:35;;;;;;;8.33;2.67;;;1.00;99.90;;;;;;5077904;28;20490;-70
2023/01/25 13:09:08;;;;;;;1.92;1.83;;;1.00;99.90;;;;;;5071326;28;20436;-70
2023/01/25 13:11:39;;;;;;;4.20;2.20;;;1.00;99.90;;;;;;5076196;28;20425;-69
2023/01/25 13:14:15;;;;;;;3.40;1.52;;;1.00;99.90;;;;;;5084168;28;20431;-70
2023/01/25 13:16:50;;;;;;;9.10;3.72;;;1.10;99.90;;;;;;5082072;28;20477;-70
2023/01/25 13:19:43;;;;;;;4.40;2.92;;;1.00;99.90;;;;;;5069137;28;20569;-70
2023/01/25 13:22:12;;;;;;;1.92;1.80;;;1.00;99.90;;;;;;5072036;28;20528;-69
2023/01/25 13:25:02;;;;;;;1.00;0.93;;;0.90;99.90;;;;;;5072950;28;20440;-69
2023/01/25 13:27:35;;;;;;;0.90;0.88;;;1.00;99.90;;;;;;5073838;28;21251;-70
2023/01/25 13:30:14;;;;;;;2.50;1.48;;;0.90;99.90;;;;;;5082223;28;20488;-69
2023/01/25 13:32:43;;;;;;;0.50;0.50;;;0.90;99.90;;;;;;5078850;28;20431;-69
2023/01/25 13:35:25;;;;;;;2.28;1.50;;;0.90;99.90;;;;;;5081546;28;20425;-69
2023/01/25 13:38:02;;;;;;;1.40;0.93;;;1.00;99.90;;;;;;5077420;28;20425;-70
2023/01/25 13:40:37;;;;;;;2.00;1.83;;;1.00;99.90;;;;;;5077304;28;20427;-69